createdAt,value
2019-06-08T00:00:38.958Z,90.46
2019-06-08T00:02:14.740Z,90.41
2019-06-08T00:03:49.452Z,89.83
2019-06-08T00:05:24.758Z,89.61
2019-06-08T00:06:59.366Z,89.61
2019-06-08T00:08:34.623Z,90.20
2019-06-08T00:10:09.982Z,90.03
2019-06-08T00:11:45.232Z,90.05
2019-06-08T00:13:21.219Z,89.82
2019-06-08T00:14:56.476Z,89.33
2019-06-08T00:16:31.212Z,88.74
2019-06-08T00:18:06.445Z,88.92
2019-06-08T00:19:41.077Z,88.86
2019-06-08T00:21:17.546Z,89.16
2019-06-08T00:22:52.347Z,88.69
2019-06-08T00:24:27.580Z,88.21
2019-06-08T00:26:02.224Z,89.42
2019-06-08T00:27:38.433Z,90.33
2019-06-08T00:29:14.159Z,90.39
2019-06-08T00:30:49.504Z,90.90
2019-06-08T00:32:24.546Z,90.10
2019-06-08T00:34:00.967Z,90.57
2019-06-08T00:35:35.657Z,89.16
2019-06-08T00:37:10.920Z,90.98
2019-06-08T00:38:45.596Z,93.02
2019-06-08T00:40:21.127Z,90.42
2019-06-08T00:41:55.846Z,90.55
2019-06-08T00:43:31.083Z,89.82
2019-06-08T00:45:06.418Z,88.94
2019-06-08T00:46:41.735Z,91.06
2019-06-08T00:48:16.759Z,89.83
2019-06-08T00:49:52.468Z,88.82
2019-06-08T00:51:27.142Z,88.09
2019-06-08T00:53:02.351Z,88.47
2019-06-08T00:54:37.094Z,88.66
2019-06-08T00:56:12.299Z,87.93
2019-06-08T00:57:46.986Z,86.73
2019-06-08T00:59:22.250Z,87.46
2019-06-08T01:00:56.900Z,86.52
2019-06-08T01:02:32.180Z,86.34
2019-06-08T01:04:06.922Z,85.80
2019-06-08T01:05:42.192Z,86.90
2019-06-08T01:07:17.926Z,88.97
2019-06-08T01:08:53.440Z,88.99
2019-06-08T01:10:29.687Z,90.59
2019-06-08T01:12:05.057Z,89.04
2019-06-08T01:13:39.792Z,88.68
2019-06-08T01:15:23.501Z,89.27
2019-06-08T01:16:54.000Z,89.51
2019-06-08T01:18:29.394Z,88.52
2019-06-08T01:20:04.631Z,89.38
2019-06-08T01:21:40.020Z,88.81
2019-06-08T01:23:14.661Z,87.37
2019-06-08T01:24:49.917Z,87.30
2019-06-08T01:26:25.962Z,87.25
2019-06-08T01:28:01.329Z,90.42
2019-06-08T01:29:35.998Z,90.00
2019-06-08T01:31:11.267Z,88.81
2019-06-08T01:32:45.925Z,87.27
2019-06-08T01:34:22.667Z,87.60
2019-06-08T01:35:58.458Z,85.87
2019-06-08T01:37:33.764Z,86.03
2019-06-08T01:39:08.557Z,86.76
2019-06-08T01:40:43.981Z,89.13
2019-06-08T01:42:18.628Z,88.63
2019-06-08T01:43:53.873Z,87.49
2019-06-08T01:45:32.603Z,88.88
2019-06-08T01:47:08.497Z,87.12
2019-06-08T01:48:43.149Z,86.96
2019-06-08T01:50:18.397Z,86.93
2019-06-08T01:51:53.128Z,87.04
2019-06-08T01:53:28.870Z,87.42
2019-06-08T01:55:03.665Z,86.39
2019-06-08T01:56:38.893Z,85.99
2019-06-08T01:58:13.565Z,85.81
2019-06-08T01:59:48.787Z,85.69
2019-06-08T02:01:23.540Z,85.88
2019-06-08T02:02:58.910Z,84.97
2019-06-08T02:04:34.842Z,85.07
2019-06-08T02:06:10.487Z,85.34
2019-06-08T02:07:45.231Z,84.86
2019-06-08T02:09:20.587Z,84.17
2019-06-08T02:10:55.233Z,84.58
2019-06-08T02:12:31.177Z,84.38
2019-06-08T02:14:06.271Z,83.66
2019-06-08T02:15:42.662Z,83.41
2019-06-08T02:17:17.304Z,83.68
2019-06-08T02:18:52.539Z,82.72
2019-06-08T02:20:28.628Z,83.38
2019-06-08T02:22:04.152Z,83.32
2019-06-08T02:23:39.688Z,82.77
2019-06-08T02:25:17.545Z,82.99
2019-06-08T02:26:52.189Z,82.38
2019-06-08T02:28:27.494Z,82.75
2019-06-08T02:30:02.231Z,81.88
2019-06-08T02:31:37.825Z,82.37
2019-06-08T02:33:12.651Z,82.55
2019-06-08T02:34:47.973Z,83.08
2019-06-08T02:36:22.708Z,82.99
2019-06-08T02:37:57.990Z,82.84
2019-06-08T02:39:32.909Z,82.40
2019-06-08T02:41:08.205Z,82.59
2019-06-08T02:42:42.941Z,82.88
2019-06-08T02:44:18.182Z,83.02
2019-06-08T02:45:53.883Z,82.78
2019-06-08T02:47:30.418Z,82.81
2019-06-08T02:49:05.631Z,82.57
2019-06-08T02:50:54.259Z,82.36
2019-06-08T02:52:31.817Z,82.56
2019-06-08T02:54:06.568Z,82.39
2019-06-08T02:55:42.390Z,83.01
2019-06-08T02:57:17.433Z,81.87
2019-06-08T02:58:53.057Z,82.21
2019-06-08T03:00:29.225Z,81.93
2019-06-08T03:02:05.285Z,81.74
2019-06-08T03:03:41.015Z,83.30
2019-06-08T03:05:17.474Z,81.99
2019-06-08T03:06:53.351Z,82.11
2019-06-08T03:08:29.965Z,82.70
2019-06-08T03:10:05.438Z,82.21
2019-06-08T03:11:41.478Z,82.92
2019-06-08T03:13:16.317Z,82.92
2019-06-08T03:14:53.396Z,82.46
2019-06-08T03:16:28.055Z,82.64
2019-06-08T03:18:03.317Z,82.02
2019-06-08T03:19:39.869Z,82.23
2019-06-08T03:21:14.875Z,83.00
2019-06-08T03:22:49.553Z,82.25
2019-06-08T03:24:24.778Z,82.25
2019-06-08T03:25:59.489Z,82.48
2019-06-08T03:27:35.302Z,82.71
2019-06-08T03:29:11.038Z,82.71
2019-06-08T03:30:53.861Z,82.86
2019-06-08T03:32:23.002Z,83.01
2019-06-08T03:33:58.290Z,82.95
2019-06-08T03:35:38.821Z,82.80
2019-06-08T03:37:11.784Z,82.80
2019-06-08T03:38:46.407Z,82.77
2019-06-08T03:40:21.750Z,82.37
2019-06-08T03:41:56.387Z,82.23
2019-06-08T03:43:31.614Z,82.28
2019-06-08T03:45:06.362Z,82.10
2019-06-08T03:46:43.470Z,81.82
2019-06-08T03:48:17.955Z,81.20
2019-06-08T03:49:57.385Z,81.36
2019-06-08T03:51:35.058Z,81.61
2019-06-08T03:53:07.611Z,81.66
2019-06-08T03:54:43.068Z,81.79
2019-06-08T03:56:19.200Z,81.75
2019-06-08T03:57:53.874Z,81.75
2019-06-08T03:59:29.098Z,81.41
2019-06-08T04:01:03.763Z,80.96
2019-06-08T04:02:39.897Z,79.68
2019-06-08T04:04:15.163Z,79.68
2019-06-08T04:05:50.391Z,79.20
2019-06-08T04:07:26.110Z,79.07
2019-06-08T04:09:01.377Z,78.58
2019-06-08T04:10:37.755Z,78.87
2019-06-08T04:12:12.981Z,78.94
2019-06-08T04:13:47.638Z,78.94
2019-06-08T04:15:22.903Z,78.29
2019-06-08T04:16:57.559Z,77.96
2019-06-08T04:18:32.804Z,78.34
2019-06-08T04:20:11.608Z,77.65
2019-06-08T04:21:46.126Z,76.72
2019-06-08T04:23:21.105Z,76.37
2019-06-08T04:24:56.361Z,76.50
2019-06-08T04:26:31.138Z,76.29
2019-06-08T04:28:06.446Z,76.28
2019-06-08T04:29:41.801Z,76.36
2019-06-08T04:31:17.178Z,76.00
2019-06-08T04:32:51.803Z,75.32
2019-06-08T04:34:27.041Z,74.79
2019-06-08T04:36:01.694Z,75.35
2019-06-08T04:37:38.195Z,74.89
2019-06-08T04:39:13.268Z,74.95
2019-06-08T04:40:50.087Z,74.54
2019-06-08T04:42:24.959Z,74.42
2019-06-08T04:44:00.202Z,74.29
2019-06-08T04:45:34.861Z,72.95
2019-06-08T04:47:10.075Z,72.21
2019-06-08T04:48:45.777Z,72.06
2019-06-08T04:50:23.973Z,72.03
2019-06-08T04:51:58.118Z,72.09
2019-06-08T04:53:33.429Z,71.73
2019-06-08T04:55:08.091Z,71.51
2019-06-08T04:56:44.863Z,71.31
2019-06-08T04:58:19.725Z,71.33
2019-06-08T04:59:54.931Z,71.68
2019-06-08T05:01:29.660Z,70.71
2019-06-08T05:03:04.971Z,70.82
2019-06-08T05:04:41.017Z,72.58
2019-06-08T05:06:16.405Z,70.26
2019-06-08T05:07:51.026Z,70.27
2019-06-08T05:09:26.260Z,68.36
2019-06-08T05:11:00.906Z,68.09
2019-06-08T05:12:36.141Z,68.50
2019-06-08T05:14:10.802Z,67.22
2019-06-08T05:15:47.401Z,67.31
2019-06-08T05:17:22.188Z,62.16
2019-06-08T05:18:57.401Z,67.36
2019-06-08T05:20:39.045Z,66.91
2019-06-08T05:22:09.008Z,66.75
2019-06-08T05:23:43.659Z,66.75
2019-06-08T05:25:18.960Z,65.27
2019-06-08T05:26:53.609Z,66.08
2019-06-08T05:28:28.843Z,66.58
2019-06-08T05:30:08.534Z,63.76
2019-06-08T05:31:41.537Z,64.11
2019-06-08T05:33:16.183Z,60.33
2019-06-08T05:34:51.507Z,57.56
2019-06-08T05:36:26.407Z,58.69
2019-06-08T05:38:01.671Z,59.83
2019-06-08T05:39:36.464Z,62.94
2019-06-08T05:41:12.768Z,61.82
2019-06-08T05:42:47.908Z,61.31
2019-06-08T05:44:23.238Z,59.22
2019-06-08T05:45:57.881Z,61.28
2019-06-08T05:47:33.253Z,62.30
2019-06-08T05:49:07.910Z,57.40
2019-06-08T05:50:56.864Z,42.77
2019-06-08T05:52:19.569Z,31.48
2019-06-08T05:53:54.836Z,31.57
2019-06-08T05:55:29.473Z,29.20
2019-06-08T05:57:05.215Z,29.18
2019-06-08T05:58:39.916Z,30.50
2019-06-08T06:00:15.504Z,28.59
2019-06-08T06:01:51.039Z,28.93
2019-06-08T06:03:27.643Z,28.96
2019-06-08T06:05:02.324Z,28.96
2019-06-08T06:06:37.639Z,27.83
2019-06-08T06:08:18.963Z,25.87
2019-06-08T06:09:49.297Z,25.55
2019-06-08T06:11:24.026Z,25.28
2019-06-08T06:12:59.359Z,27.94
2019-06-08T06:14:36.874Z,29.50
2019-06-08T06:16:11.937Z,26.15
2019-06-08T06:17:48.037Z,23.80
2019-06-08T06:19:23.613Z,26.63
2019-06-08T06:21:10.233Z,27.05
2019-06-08T06:22:35.282Z,25.90
2019-06-08T06:24:10.001Z,24.33
2019-06-08T06:25:45.421Z,22.19
2019-06-08T06:27:21.138Z,24.91
2019-06-08T06:28:56.402Z,25.69
2019-06-08T06:30:31.125Z,21.96
2019-06-08T06:32:06.692Z,23.25
2019-06-08T06:33:42.009Z,26.31
2019-06-08T06:35:17.813Z,25.72
2019-06-08T06:36:52.473Z,26.00
2019-06-08T06:38:28.392Z,26.32
2019-06-08T06:40:03.106Z,24.30
2019-06-08T06:41:38.319Z,23.05
2019-06-08T06:43:13.008Z,22.66
2019-06-08T06:44:49.057Z,23.42
2019-06-08T06:46:24.546Z,24.34
2019-06-08T06:47:59.809Z,25.18
2019-06-08T06:49:34.431Z,26.35
2019-06-08T06:51:22.894Z,27.07
2019-06-08T07:00:12.036Z,25.60
2019-06-08T07:01:47.601Z,21.56
2019-06-08T07:03:22.725Z,24.76
2019-06-08T07:04:58.023Z,31.57
2019-06-08T07:06:32.660Z,25.40
2019-06-08T07:08:07.960Z,25.66
2019-06-08T07:09:42.606Z,29.73
2019-06-08T07:11:17.893Z,37.76
2019-06-08T07:12:52.920Z,29.61
2019-06-08T07:14:28.159Z,26.32
2019-06-08T07:16:17.252Z,23.20
2019-06-08T07:17:39.768Z,31.80
2019-06-08T07:19:14.475Z,31.77
2019-06-08T07:20:50.265Z,38.31
2019-06-08T07:22:25.983Z,41.40
2019-06-08T07:24:01.206Z,40.21
2019-06-08T07:25:35.954Z,40.87
2019-06-08T07:27:11.191Z,45.45
2019-06-08T07:28:46.221Z,43.64
2019-06-08T07:30:23.172Z,43.32
2019-06-08T07:31:59.238Z,43.96
2019-06-08T07:33:34.639Z,43.80
2019-06-08T07:35:09.360Z,46.53
2019-06-08T07:36:44.592Z,46.67
2019-06-08T07:38:19.240Z,46.68
2019-06-08T07:39:55.942Z,48.96
2019-06-08T07:41:30.964Z,49.79
2019-06-08T07:43:06.208Z,47.88
2019-06-08T07:44:41.934Z,48.50
2019-06-08T07:46:17.427Z,46.40
2019-06-08T07:47:52.185Z,47.54
2019-06-08T07:49:27.444Z,49.28
2019-06-08T07:51:02.171Z,48.11
2019-06-08T07:52:37.493Z,48.86
2019-06-08T07:54:12.172Z,48.73
2019-06-08T07:55:48.733Z,49.06
2019-06-08T07:57:23.819Z,50.33
2019-06-08T07:58:59.172Z,42.42
2019-06-08T08:00:33.871Z,44.88
2019-06-08T08:02:09.152Z,47.53
2019-06-08T08:03:43.925Z,45.70
2019-06-08T08:05:19.450Z,38.51
2019-06-08T08:06:54.559Z,32.82
2019-06-08T08:08:30.000Z,34.55
2019-06-08T08:10:05.597Z,27.40
2019-06-08T08:11:40.812Z,27.25
2019-06-08T08:13:15.475Z,28.09
2019-06-08T08:14:51.317Z,34.93
2019-06-08T08:16:26.120Z,30.59
2019-06-08T08:18:01.340Z,34.97
2019-06-08T08:19:35.978Z,32.62
2019-06-08T08:21:21.194Z,37.32
2019-06-08T08:22:49.185Z,38.40
2019-06-08T08:24:24.590Z,41.86
2019-06-08T08:26:01.909Z,37.75
2019-06-08T08:27:37.732Z,31.50
2019-06-08T08:29:12.407Z,39.11
2019-06-08T08:30:49.353Z,40.19
2019-06-08T08:32:24.078Z,33.73
2019-06-08T08:34:05.351Z,28.56
2019-06-08T08:35:37.962Z,29.26
2019-06-08T08:37:13.858Z,22.34
2019-06-08T08:38:50.221Z,26.48
2019-06-08T08:40:28.048Z,30.65
2019-06-08T08:42:04.535Z,24.93
2019-06-08T08:43:38.867Z,24.24
2019-06-08T08:45:18.140Z,30.43
2019-06-08T08:46:53.484Z,27.68
2019-06-08T08:48:31.618Z,23.66
2019-06-08T08:50:07.418Z,34.71
2019-06-08T08:51:42.158Z,34.44
2019-06-08T08:53:18.284Z,33.15
2019-06-08T08:54:54.187Z,31.59
2019-06-08T08:56:29.706Z,29.94
2019-06-08T08:58:04.374Z,36.02
2019-06-08T08:59:39.643Z,34.67
2019-06-08T09:01:14.261Z,31.57
2019-06-08T09:03:05.866Z,35.23
2019-06-08T09:04:27.763Z,37.34
2019-06-08T09:06:03.988Z,37.18
2019-06-08T09:07:39.827Z,35.58
2019-06-08T09:09:15.111Z,38.59
2019-06-08T09:10:51.760Z,39.75
2019-06-08T09:12:27.673Z,37.78
2019-06-08T09:14:07.110Z,35.78
2019-06-08T09:15:39.510Z,36.41
2019-06-08T09:17:14.163Z,36.73
2019-06-08T09:18:49.433Z,36.64
2019-06-08T09:20:24.088Z,35.90
2019-06-08T09:22:02.266Z,36.85
2019-06-08T09:23:37.680Z,37.84
2019-06-08T09:25:13.711Z,35.49
2019-06-08T09:26:48.426Z,35.14
2019-06-08T09:28:23.666Z,36.85
2019-06-08T09:30:02.833Z,37.04
2019-06-08T09:31:38.937Z,37.01
2019-06-08T09:33:12.906Z,36.58
2019-06-08T09:34:48.391Z,38.53
2019-06-08T09:36:23.408Z,37.84
2019-06-08T09:38:01.079Z,39.69
2019-06-08T09:39:35.062Z,41.00
2019-06-08T09:41:10.294Z,39.75
2019-06-08T09:42:45.143Z,40.46
2019-06-08T09:44:20.371Z,41.48
2019-06-08T09:45:55.393Z,40.88
2019-06-08T09:47:32.794Z,40.53
2019-06-08T09:49:11.084Z,41.57
2019-06-08T09:50:44.421Z,38.97
2019-06-08T09:52:21.642Z,38.68
2019-06-08T09:54:00.608Z,38.17
2019-06-08T09:55:32.374Z,36.27
2019-06-08T09:57:09.095Z,35.62
2019-06-08T09:58:48.789Z,36.05
2019-06-08T10:00:28.381Z,36.52
2019-06-08T10:02:05.635Z,34.55
2019-06-08T10:03:39.252Z,35.89
2019-06-08T10:05:13.761Z,38.88
2019-06-08T10:06:49.004Z,37.68
2019-06-08T10:08:23.711Z,35.57
2019-06-08T10:10:02.262Z,36.57
2019-06-08T10:11:37.841Z,35.27
2019-06-08T10:13:12.389Z,36.22
2019-06-08T10:14:48.998Z,36.53
2019-06-08T10:16:24.209Z,38.76
2019-06-08T10:17:58.977Z,37.88
2019-06-08T10:19:34.306Z,37.76
2019-06-08T10:21:09.584Z,39.46
2019-06-08T10:22:45.075Z,39.71
2019-06-08T10:24:19.750Z,38.80
2019-06-08T10:25:55.018Z,38.78
2019-06-08T10:27:29.629Z,37.61
2019-06-08T10:29:09.067Z,36.50
2019-06-08T10:30:41.434Z,37.22
2019-06-08T10:32:18.122Z,34.55
2019-06-08T10:33:52.790Z,35.38
2019-06-08T10:35:28.391Z,37.66
2019-06-08T10:37:08.231Z,37.34
2019-06-08T10:38:41.277Z,36.70
2019-06-08T10:40:18.593Z,37.32
2019-06-08T10:41:53.380Z,37.89
2019-06-08T10:43:28.908Z,38.92
2019-06-08T10:45:09.564Z,40.00
2019-06-08T10:46:41.030Z,39.77
2019-06-08T10:48:17.945Z,38.64
2019-06-08T10:49:54.805Z,39.46
2019-06-08T10:51:30.064Z,36.98
2019-06-08T10:53:08.227Z,36.76
2019-06-08T10:54:41.962Z,39.67
2019-06-08T10:56:18.676Z,40.13
2019-06-08T10:57:53.644Z,38.24
2019-06-08T10:59:28.923Z,39.48
2019-06-08T11:01:07.835Z,38.38
2019-06-08T11:02:41.141Z,38.50
2019-06-08T11:04:18.486Z,38.16
2019-06-08T11:05:53.819Z,38.12
2019-06-08T11:07:29.103Z,38.14
2019-06-08T11:09:08.547Z,38.90
2019-06-08T11:10:42.068Z,37.17
2019-06-08T11:12:18.308Z,37.46
2019-06-08T11:13:53.811Z,36.93
2019-06-08T11:15:29.754Z,38.12
2019-06-08T11:17:08.298Z,37.95
2019-06-08T11:18:41.707Z,38.15
2019-06-08T11:20:17.024Z,36.60
2019-06-08T11:21:51.691Z,38.33
2019-06-08T11:23:28.789Z,37.94
2019-06-08T11:25:04.393Z,36.65
2019-06-08T11:26:40.616Z,37.34
2019-06-08T11:28:18.015Z,36.57
2019-06-08T11:29:53.259Z,37.85
2019-06-08T11:31:31.805Z,37.29
2019-06-08T11:33:06.155Z,37.21
2019-06-08T11:34:41.606Z,37.24
2019-06-08T11:36:18.918Z,35.48
2019-06-08T11:37:53.147Z,37.04
2019-06-08T11:39:28.782Z,37.18
2019-06-08T11:41:04.615Z,37.22
2019-06-08T11:42:40.439Z,37.46
2019-06-08T11:44:17.746Z,36.59
2019-06-08T11:45:52.491Z,36.09
2019-06-08T11:47:27.741Z,38.22
2019-06-08T11:49:05.081Z,36.61
2019-06-08T11:50:42.189Z,37.06
2019-06-08T11:52:18.438Z,36.58
2019-06-08T11:53:53.272Z,36.96
2019-06-08T11:55:28.531Z,36.32
2019-06-08T11:57:03.262Z,36.41
2019-06-08T11:58:40.293Z,36.06
2019-06-08T12:00:27.681Z,36.68
2019-06-08T12:02:01.772Z,37.60
2019-06-08T12:03:38.707Z,37.72
2019-06-08T12:05:14.303Z,38.21
2019-06-08T12:06:49.018Z,35.60
2019-06-08T12:08:24.323Z,36.91
2019-06-08T12:09:58.964Z,37.71
2019-06-08T12:11:34.177Z,38.39
2019-06-08T12:13:09.798Z,37.42
2019-06-08T12:14:47.582Z,38.46
2019-06-08T12:16:22.568Z,39.07
2019-06-08T12:17:58.686Z,38.00
2019-06-08T12:19:33.416Z,38.39
2019-06-08T12:21:10.990Z,38.16
2019-06-08T12:22:44.997Z,37.44
2019-06-08T12:24:20.271Z,38.54
2019-06-08T12:25:54.904Z,38.96
2019-06-08T12:27:36.220Z,38.69
2019-06-08T12:29:09.397Z,38.79
2019-06-08T12:30:43.517Z,38.34
2019-06-08T12:32:19.233Z,38.75
2019-06-08T12:33:54.483Z,38.30
2019-06-08T12:35:29.186Z,39.28
2019-06-08T12:37:05.349Z,39.40
2019-06-08T12:38:40.045Z,37.06
2019-06-08T12:40:16.871Z,38.43
2019-06-08T12:41:51.812Z,38.90
2019-06-08T12:43:28.381Z,38.13
2019-06-08T12:45:03.191Z,38.28
2019-06-08T12:46:41.407Z,39.69
2019-06-08T12:48:19.671Z,39.89
2019-06-08T12:49:51.805Z,39.42
2019-06-08T12:51:28.105Z,39.81
2019-06-08T12:53:03.503Z,39.32
2019-06-08T12:54:38.124Z,39.49
2019-06-08T12:56:14.736Z,40.27
2019-06-08T12:57:51.723Z,39.76
2019-06-08T12:59:28.250Z,39.68
2019-06-08T13:01:03.073Z,39.38
2019-06-08T13:02:38.536Z,39.28
2019-06-08T13:04:13.804Z,39.11
2019-06-08T13:05:49.194Z,38.24
2019-06-08T13:07:23.944Z,38.63
2019-06-08T13:08:59.532Z,38.75
2019-06-08T13:10:34.166Z,38.87
2019-06-08T13:12:09.745Z,38.21
2019-06-08T13:13:45.849Z,36.21
2019-06-08T13:15:21.960Z,35.33
2019-06-08T13:16:57.003Z,35.44
2019-06-08T13:18:32.230Z,34.92
2019-06-08T13:20:13.152Z,35.65
2019-06-08T13:21:48.768Z,36.58
2019-06-08T13:23:23.463Z,36.71
2019-06-08T13:25:15.181Z,35.16
2019-06-08T13:26:36.110Z,35.94
2019-06-08T13:28:14.271Z,36.08
2019-06-08T13:29:48.819Z,35.71
2019-06-08T13:31:24.825Z,35.41
2019-06-08T13:32:59.568Z,34.97
2019-06-08T13:34:34.953Z,36.06
2019-06-08T13:36:10.358Z,36.22
2019-06-08T13:37:47.430Z,36.45
2019-06-08T13:39:23.111Z,34.75
2019-06-08T13:40:58.806Z,35.04
2019-06-08T13:42:33.770Z,34.67
2019-06-08T13:44:09.028Z,34.60
2019-06-08T13:45:43.640Z,33.76
2019-06-08T13:47:20.382Z,35.00
2019-06-08T13:48:55.287Z,35.45
2019-06-08T13:50:30.513Z,35.19
2019-06-08T13:52:05.271Z,35.21
2019-06-08T13:53:40.496Z,35.37
2019-06-08T13:55:34.357Z,34.91
2019-06-08T13:56:52.952Z,34.75
2019-06-08T13:58:33.112Z,34.77
2019-06-08T14:00:07.874Z,33.85
2019-06-08T14:01:41.680Z,34.43
2019-06-08T14:03:18.652Z,35.18
2019-06-08T14:04:53.648Z,34.19
2019-06-08T14:06:28.977Z,34.60
2019-06-08T14:08:05.093Z,34.92
2019-06-08T14:09:40.304Z,35.06
2019-06-08T14:11:14.965Z,34.69
2019-06-08T14:12:50.195Z,35.00
2019-06-08T14:14:25.874Z,34.17
2019-06-08T14:16:01.831Z,35.17
2019-06-08T14:17:37.861Z,35.24
2019-06-08T14:19:13.239Z,35.13
2019-06-08T14:20:48.472Z,36.58
2019-06-08T14:22:26.013Z,36.91
2019-06-08T14:24:01.231Z,37.35
2019-06-08T14:25:47.858Z,35.82
2019-06-08T14:27:12.832Z,35.01
2019-06-08T14:28:50.364Z,35.91
2019-06-08T14:30:30.967Z,35.63
2019-06-08T14:32:02.505Z,36.72
2019-06-08T14:33:38.142Z,36.76
2019-06-08T14:35:13.496Z,36.78
2019-06-08T14:36:48.910Z,36.18
2019-06-08T14:38:29.266Z,37.09
2019-06-08T14:40:00.586Z,36.86
2019-06-08T14:41:35.837Z,36.79
2019-06-08T14:43:10.876Z,37.70
2019-06-08T14:44:47.614Z,37.37
2019-06-08T14:46:23.122Z,37.95
2019-06-08T14:47:59.321Z,37.59
2019-06-08T14:49:35.089Z,37.12
2019-06-08T14:51:10.537Z,37.38
2019-06-08T14:52:47.928Z,37.02
2019-06-08T14:54:26.411Z,38.17
2019-06-08T14:56:05.737Z,37.19
2019-06-08T14:57:37.493Z,36.82
2019-06-08T14:59:12.137Z,38.04
2019-06-08T15:00:48.015Z,37.97
2019-06-08T15:02:23.489Z,39.07
2019-06-08T15:03:58.800Z,39.17
2019-06-08T15:05:34.000Z,39.21
2019-06-08T15:07:09.694Z,39.09
2019-06-08T15:08:44.379Z,39.37
2019-06-08T15:10:21.332Z,39.12
2019-06-08T15:11:58.149Z,39.64
2019-06-08T15:13:33.209Z,39.06
2019-06-08T15:15:11.098Z,39.91
2019-06-08T15:16:45.044Z,40.54
2019-06-08T15:18:20.433Z,40.32
2019-06-08T15:19:55.713Z,40.13
2019-06-08T15:21:32.988Z,40.69
2019-06-08T15:23:08.202Z,41.02
2019-06-08T15:24:43.073Z,41.13
2019-06-08T15:26:28.303Z,41.82
2019-06-08T15:27:54.654Z,41.02
2019-06-08T15:29:31.385Z,41.35
2019-06-08T15:31:08.449Z,40.69
2019-06-08T15:32:43.330Z,40.46
2019-06-08T15:34:18.490Z,41.74
2019-06-08T15:35:53.693Z,40.39
2019-06-08T15:37:29.689Z,40.23
2019-06-08T15:39:07.839Z,40.28
2019-06-08T15:40:42.859Z,40.50
2019-06-08T15:42:18.131Z,40.98
2019-06-08T15:43:52.745Z,41.07
2019-06-08T15:45:30.695Z,41.40
2019-06-08T15:47:04.741Z,40.69
2019-06-08T15:48:39.979Z,41.33
2019-06-08T15:50:14.827Z,42.40
2019-06-08T15:51:50.043Z,42.37
2019-06-08T15:53:24.742Z,42.73
2019-06-08T15:55:01.611Z,42.93
2019-06-08T15:56:48.153Z,42.28
2019-06-08T15:58:14.419Z,43.81
2019-06-08T15:59:49.377Z,42.76
2019-06-08T16:01:25.069Z,42.56
2019-06-08T16:02:59.727Z,42.31
2019-06-08T16:04:34.961Z,43.33
2019-06-08T16:06:09.600Z,42.72
2019-06-08T16:07:44.850Z,42.16
2019-06-08T16:09:19.531Z,42.33
2019-06-08T16:10:54.832Z,42.95
2019-06-08T16:12:30.652Z,42.37
2019-06-08T16:14:06.246Z,42.02
2019-06-08T16:15:40.911Z,40.91
2019-06-08T16:17:16.128Z,41.15
2019-06-08T16:18:50.768Z,41.22
2019-06-08T16:20:27.407Z,41.27
2019-06-08T16:22:02.249Z,41.38
2019-06-08T16:23:37.485Z,39.89
2019-06-08T16:25:12.241Z,40.29
2019-06-08T16:26:53.255Z,40.63
2019-06-08T16:28:23.828Z,39.86
2019-06-08T16:29:59.157Z,40.42
2019-06-08T16:31:35.156Z,40.02
2019-06-08T16:33:10.641Z,40.52
2019-06-08T16:34:45.317Z,39.75
2019-06-08T16:36:20.578Z,40.63
2019-06-08T16:37:55.230Z,40.17
2019-06-08T16:39:30.910Z,40.74
2019-06-08T16:41:05.932Z,41.53
2019-06-08T16:42:41.168Z,40.23
2019-06-08T16:44:15.813Z,39.61
2019-06-08T16:45:51.037Z,40.52
2019-06-08T16:47:26.928Z,40.44
2019-06-08T16:49:03.727Z,40.29
2019-06-08T16:50:38.585Z,40.68
2019-06-08T16:52:17.096Z,41.21
2019-06-08T16:53:50.252Z,40.89
2019-06-08T16:55:25.476Z,40.80
2019-06-08T16:57:09.345Z,41.51
2019-06-08T16:58:38.257Z,41.06
2019-06-08T17:01:50.329Z,40.88
2019-06-08T17:03:25.380Z,40.22
2019-06-08T17:05:00.597Z,41.11
2019-06-08T17:06:35.344Z,41.73
2019-06-08T17:08:10.813Z,41.07
2019-06-08T17:09:45.615Z,41.70
2019-06-08T17:11:20.822Z,41.36
2019-06-08T17:12:55.548Z,41.53
2019-06-08T17:14:31.947Z,41.12
2019-06-08T17:16:06.835Z,41.81
2019-06-08T17:17:42.062Z,41.48
2019-06-08T17:19:16.725Z,41.63
2019-06-08T17:20:53.007Z,41.75
2019-06-08T17:22:27.661Z,42.13
2019-06-08T17:24:02.910Z,42.42
2019-06-08T17:25:38.637Z,42.47
2019-06-08T17:27:26.299Z,42.05
2019-06-08T17:28:50.427Z,41.95
2019-06-08T17:30:25.680Z,42.79
2019-06-08T17:32:00.452Z,42.08
2019-06-08T17:33:35.655Z,43.20
2019-06-08T17:35:10.315Z,43.17
2019-06-08T17:36:45.558Z,43.14
2019-06-08T17:38:20.181Z,43.23
2019-06-08T17:39:55.413Z,42.34
2019-06-08T17:41:30.076Z,42.72
2019-06-08T17:43:05.465Z,43.00
2019-06-08T17:44:40.416Z,43.12
2019-06-08T17:46:15.802Z,42.61
2019-06-08T17:47:50.511Z,42.71
2019-06-08T17:49:25.761Z,42.14
2019-06-08T17:51:00.388Z,41.92
2019-06-08T17:52:36.928Z,41.51
2019-06-08T17:54:11.949Z,41.99
2019-06-08T17:55:47.193Z,42.14
2019-06-08T17:57:21.847Z,42.16
2019-06-08T17:58:57.058Z,42.84
2019-06-08T18:00:31.772Z,42.37
2019-06-08T18:02:08.123Z,43.12
2019-06-08T18:03:44.704Z,42.24
2019-06-08T18:05:20.050Z,43.38
2019-06-08T18:06:54.736Z,43.80
2019-06-08T18:08:29.952Z,43.06
2019-06-08T18:10:07.175Z,43.26
2019-06-08T18:11:43.815Z,43.07
2019-06-08T18:13:19.352Z,44.14
2019-06-08T18:14:54.587Z,44.78
2019-06-08T18:16:29.232Z,43.76
2019-06-08T18:18:04.503Z,44.17
2019-06-08T18:19:42.863Z,43.52
2019-06-08T18:21:17.718Z,43.47
2019-06-08T18:22:52.699Z,43.60
2019-06-08T18:24:28.245Z,44.10
2019-06-08T18:26:02.918Z,44.40
2019-06-08T18:27:40.694Z,45.21
2019-06-08T18:29:14.518Z,53.02
2019-06-08T18:30:49.829Z,59.94
2019-06-08T18:32:24.495Z,60.15
2019-06-08T18:34:01.978Z,63.62
2019-06-08T18:35:39.419Z,65.30
2019-06-08T18:37:13.632Z,65.48
2019-06-08T18:38:48.670Z,64.43
2019-06-08T18:40:24.092Z,65.74
2019-06-08T18:41:59.110Z,65.23
2019-06-08T18:43:35.495Z,63.77
2019-06-08T18:45:10.275Z,63.22
2019-06-08T18:46:45.488Z,64.50
2019-06-08T18:48:20.134Z,61.50
2019-06-08T18:49:57.440Z,63.35
2019-06-08T18:51:31.847Z,64.33
2019-06-08T18:53:07.205Z,62.93
2019-06-08T18:54:43.047Z,64.18
2019-06-08T18:56:18.848Z,61.95
2019-06-08T18:57:53.485Z,61.95
2019-06-08T18:59:28.881Z,62.49
2019-06-08T19:01:03.648Z,61.56
2019-06-08T19:02:43.057Z,62.19
2019-06-08T19:04:15.437Z,62.19
2019-06-08T19:05:52.131Z,62.52
2019-06-08T19:07:28.360Z,61.69
2019-06-08T19:09:07.458Z,62.24
2019-06-08T19:10:42.726Z,62.28
2019-06-08T19:12:19.673Z,62.28
2019-06-08T19:13:54.563Z,61.14
2019-06-08T19:15:34.393Z,62.88
2019-06-08T19:17:09.024Z,60.97
2019-06-08T19:18:48.042Z,62.18
2019-06-08T19:20:22.482Z,60.28
2019-06-08T19:21:58.057Z,62.41
2019-06-08T19:23:32.715Z,60.14
2019-06-08T19:25:08.129Z,60.14
2019-06-08T19:26:45.454Z,59.11
2019-06-08T19:28:35.306Z,62.21
2019-06-08T19:29:57.765Z,59.15
2019-06-08T19:31:33.055Z,61.40
2019-06-08T19:33:07.718Z,61.40
2019-06-08T19:34:43.910Z,61.95
2019-06-08T19:36:19.287Z,61.95
2019-06-08T19:37:54.587Z,64.40
2019-06-08T19:39:29.234Z,62.41
2019-06-08T19:41:04.463Z,62.41
2019-06-08T19:42:47.433Z,64.68
2019-06-08T19:44:18.131Z,64.68
2019-06-08T19:45:52.453Z,64.00
2019-06-08T19:47:27.791Z,63.43
2019-06-08T19:49:02.408Z,65.45
2019-06-08T19:50:38.616Z,64.42
2019-06-08T19:52:14.070Z,64.11
2019-06-08T19:53:52.985Z,63.01
2019-06-08T19:55:25.647Z,63.99
2019-06-08T19:57:00.917Z,63.71
2019-06-08T19:58:47.912Z,63.28
2019-06-08T20:00:13.088Z,64.08
2019-06-08T20:01:52.628Z,63.09
2019-06-08T20:03:27.401Z,58.64
2019-06-08T20:05:01.049Z,61.85
2019-06-08T20:06:37.971Z,62.64
2019-06-08T20:08:12.840Z,62.69
2019-06-08T20:09:49.325Z,64.02
2019-06-08T20:11:25.373Z,62.48
2019-06-08T20:13:01.663Z,60.50
2019-06-08T20:14:37.454Z,60.87
2019-06-08T20:16:12.835Z,61.63
2019-06-08T20:17:48.911Z,58.03
2019-06-08T20:19:24.480Z,59.26
2019-06-08T20:20:59.223Z,59.90
2019-06-08T20:22:34.431Z,59.88
2019-06-08T20:24:10.412Z,61.59
2019-06-08T20:25:48.593Z,60.56
2019-06-08T20:27:22.310Z,60.69
2019-06-08T20:29:11.581Z,62.17
2019-06-08T20:30:33.915Z,59.90
2019-06-08T20:32:09.158Z,60.35
2019-06-08T20:33:43.806Z,61.26
2019-06-08T20:35:19.122Z,61.02
2019-06-08T20:36:53.746Z,61.13
2019-06-08T20:38:38.250Z,61.75
2019-06-08T20:40:11.162Z,61.75